Tiempo atmosférico en la estación meteorológica de El Granado, Huelva (60 m.)

Fecha
DESCASC
Temp. máxima en grados centígrados (hora)
DESCASC
Temp. mínima en grados centígrados (hora)
DESCASC
Temp. media en grados centígrados
DESCASC
Racha de viento máxima en m/sg (hora)
DESCASC
Velocidad máxima media en intervalos de 10 minutos(hora)
DESCASC
Precipitaciones diarias en mm
DESCASC
Precipitaciones de 00:00 a 06:00 en mm
DESCASC
Precipitaciones de 06:00 a 12:00 en mm
DESCASC
Precipitaciones de 12:00 a 18:00 en mm
DESCASC
Precipitaciones de 18:00 a 24:00 en mm
DESCASC
21-08-2017 -- (--) -- (--) -- -- (--) -- (--) -- 0 0 0 --
20-08-2017 39.9 (16:50) 20.4 (06:40) 30.2 -- (--) -- (--) 0 0 0 0 0
19-08-2017 42.1 (18:50) 19.2 (08:20) 30.6 -- (--) -- (--) 0 0 0 0 0
18-08-2017 40.2 (17:30) 19.3 (08:20) 29.8 -- (--) -- (--) 0 0 0 0 0
17-08-2017 40 (17:10) 19 (00:00) 29.5 -- (--) -- (--) 0 0 0 0 0
16-08-2017 37.5 (17:20) 18.3 (00:00) 27.9 -- (--) -- (--) 0 0 0 0 0
15-08-2017 38.6 (16:50) 17.8 (00:00) 28.2 -- (--) -- (--) 0 0 0 0 0
14-08-2017 38.9 (17:10) 18.5 (08:00) 28.7 -- (--) -- (--) 0 0 0 0 0
13-08-2017 40.9 (16:10) 17.5 (00:00) 29.2 -- (--) -- (--) 0 0 0 0 0
12-08-2017 39.2 (18:30) 17.2 (00:00) 28.2 -- (--) -- (--) 0 0 0 0 0
11-08-2017 38 (18:10) 16.7 (00:00) 27.4 -- (--) -- (--) 0 0 0 0 0
10-08-2017 36.3 (17:30) 15.3 (00:00) 25.8 -- (--) -- (--) 0 0 0 0 0
09-08-2017 32.2 (18:30) 14.9 (00:00) 23.6 -- (--) -- (--) 0 0 0 0 0
08-08-2017 33.3 (18:00) 16.7 (00:00) 25 -- (--) -- (--) 0 0 0 0 0
07-08-2017 39.7 (17:20) 20 (00:00) 29.9 -- (--) -- (--) 0 0 0 0 0
06-08-2017 40.5 (18:10) 17.2 (00:00) 28.9 -- (--) -- (--) 0 0 0 0 0
05-08-2017 41.1 (17:00) 20.8 (00:00) 30.9 -- (--) -- (--) 0 0 0 0 0
04-08-2017 42.3 (16:40) 21.5 (00:00) 31.9 -- (--) -- (--) 0 0 0 0 0
03-08-2017 39.1 (18:40) 17.7 (00:00) 28.4 -- (--) -- (--) 0 0 0 0 0
02-08-2017 38.2 (17:40) 15.4 (00:00) 26.8 -- (--) -- (--) 0 0 0 0 0
01-08-2017 33.5 (17:30) 18.5 (00:00) 26 -- (--) -- (--) 0 0 0 0 0
31-07-2017 36.3 (17:40) 17.2 (00:00) 26.8 -- (--) -- (--) 0 0 0 0 0
30-07-2017 39.3 (16:50) 19.4 (00:00) 29.3 -- (--) -- (--) 0 0 0 0 0
29-07-2017 41.7 (17:30) 19.6 (00:00) 30.7 -- (--) -- (--) 0 0 0 0 0
28-07-2017 41.5 (18:20) 17.7 (00:00) 29.6 -- (--) -- (--) 0 0 0 0 0
27-07-2017 40.4 (17:10) 20.3 (00:00) 30.4 -- (--) -- (--) 0 0 0 0 0
26-07-2017 38.1 (15:40) 19.7 (00:00) 28.9 -- (--) -- (--) 0 0 0 0 0
25-07-2017 39.2 (19:20) 17.7 (00:00) 28.5 -- (--) -- (--) 0 0 0 0 0
24-07-2017 37.7 (17:10) 19.1 (00:00) 28.4 -- (--) -- (--) 0 0 0 0 0
23-07-2017 37.4 (18:10) 15.9 (00:00) 26.7 -- (--) -- (--) 0 0 0 0 0

Gráficas

Temp. máximas Temp. mínimas Temp. medias Precipitaciones Rachas de viento máximas Velocidades máximas media en intervalos de 10 minutos

Datos horarios

Fecha y hora oficial Temperatura (ºC) Velocidad del viento (km/h) Dirección del viento Racha (km/h) Dirección de racha Precipitación (mm) Presión (hPa) Tendencia (hPa) Humedad (%)
2017-08-21 23:00:00 27.8 -- -- -- -- 0 -- -- 59
2017-08-21 22:00:00 29.4 -- -- -- -- 0 -- -- 51
2017-08-21 21:00:00 31.4 -- -- -- -- 0 -- -- 46
2017-08-21 20:00:00 33.4 -- -- -- -- 0 -- -- 40
2017-08-21 19:00:00 35.3 -- -- -- -- 0 -- -- 36
2017-08-21 18:00:00 36.3 -- -- -- -- 0 -- -- 33
2017-08-21 17:00:00 36.5 -- -- -- -- 0 -- -- 34
2017-08-21 16:00:00 36.3 -- -- -- -- 0 -- -- 32
2017-08-21 15:00:00 35.6 -- -- -- -- 0 -- -- 32
2017-08-21 14:00:00 34.9 -- -- -- -- 0 -- -- 35
2017-08-21 13:00:00 33.7 -- -- -- -- 0 -- -- 39
2017-08-21 12:00:00 32.2 -- -- -- -- 0 -- -- 45
2017-08-21 11:00:00 29.4 -- -- -- -- 0 -- -- 55
2017-08-21 10:00:00 25.6 -- -- -- -- 0 -- -- 69
2017-08-21 09:00:00 24 -- -- -- -- 0 -- -- 76
2017-08-21 08:00:00 23.9 -- -- -- -- 0 -- -- 76
2017-08-21 07:00:00 24.1 -- -- -- -- 0 -- -- 74
2017-08-21 06:00:00 24.4 -- -- -- -- 0 -- -- 71
2017-08-21 05:00:00 25 -- -- -- -- 0 -- -- 68
2017-08-21 04:00:00 24.6 -- -- -- -- 0 -- -- 71
2017-08-21 03:00:00 25 -- -- -- -- 0 -- -- 71
2017-08-21 02:00:00 25.9 -- -- -- -- 0 -- -- 67
2017-08-21 01:00:00 27.1 -- -- -- -- 0 -- -- 62
2017-08-21 00:00:00 28.3 -- -- -- -- 0 -- -- 58
2017-08-20 23:00:00 29.7 -- -- -- -- 0 -- -- 53
2017-08-20 22:00:00 30.9 -- -- -- -- 0 -- -- 50
2017-08-20 21:00:00 32.8 -- -- -- -- 0 -- -- 44
2017-08-20 20:00:00 35.2 -- -- -- -- 0 -- -- 38
2017-08-20 19:00:00 36.9 -- -- -- -- 0 -- -- 34
2017-08-20 18:00:00 38.3 -- -- -- -- 0 -- -- 30
2017-08-20 17:00:00 39.7 -- -- -- -- 0 -- -- 28
2017-08-20 16:00:00 39.1 -- -- -- -- 0 -- -- 29
2017-08-20 15:00:00 37.7 -- -- -- -- 0 -- -- 30
2017-08-20 14:00:00 36.8 -- -- -- -- 0 -- -- 33
2017-08-20 13:00:00 34.8 -- -- -- -- 0 -- -- 38
2017-08-20 12:00:00 32.1 -- -- -- -- 0 -- -- 49
2017-08-20 11:00:00 29.2 -- -- -- -- 0 -- -- 58
2017-08-20 10:00:00 24.6 -- -- -- -- 0 -- -- 75
2017-08-20 09:00:00 21 -- -- -- -- 0 -- -- 78
2017-08-20 08:00:00 20.7 -- -- -- -- 0 -- -- 77
2017-08-20 07:00:00 20.5 -- -- -- -- 0 -- -- 74
2017-08-20 06:00:00 20.7 -- -- -- -- 0 -- -- 76
2017-08-20 05:00:00 21.3 -- -- -- -- 0 -- -- 71
2017-08-20 04:00:00 21.9 -- -- -- -- 0 -- -- 70
2017-08-20 03:00:00 22.9 -- -- -- -- 0 -- -- 67
2017-08-20 02:00:00 24.2 -- -- -- -- 0 -- -- 60
2017-08-20 01:00:00 25.8 -- -- -- -- 0 -- -- 55
2017-08-20 00:00:00 27.5 -- -- -- -- 0 -- -- 50
2017-08-19 23:00:00 28.7 -- -- -- -- 0 -- -- 46
2017-08-19 22:00:00 30.8 -- -- -- -- 0 -- -- 42
2017-08-19 21:00:00 34.6 -- -- -- -- 0 -- -- 33
2017-08-19 20:00:00 38.8 -- -- -- -- 0 -- -- 25
2017-08-19 19:00:00 42 -- -- -- -- 0 -- -- 14
2017-08-19 18:00:00 39.9 -- -- -- -- 0 -- -- 16
2017-08-19 17:00:00 40.5 -- -- -- -- 0 -- -- 16
2017-08-19 16:00:00 38.6 -- -- -- -- 0 -- -- 20
2017-08-19 15:00:00 36.8 -- -- -- -- 0 -- -- 25
2017-08-19 14:00:00 34.6 -- -- -- -- 0 -- -- 32
2017-08-19 13:00:00 32.2 -- -- -- -- 0 -- -- 37
2017-08-19 12:00:00 29.4 -- -- -- -- 0 -- -- 46
2017-08-19 11:00:00 26.1 -- -- -- -- 0 -- -- 54
2017-08-19 10:00:00 22 -- -- -- -- 0 -- -- 67
2017-08-19 09:00:00 19.6 -- -- -- -- 0 -- -- 77
2017-08-19 08:00:00 19.4 -- -- -- -- 0 -- -- 77
2017-08-19 07:00:00 19.9 -- -- -- -- 0 -- -- 74
2017-08-19 06:00:00 20.6 -- -- -- -- 0 -- -- 70
2017-08-19 05:00:00 21.4 -- -- -- -- 0 -- -- 66
2017-08-19 04:00:00 22.4 -- -- -- -- 0 -- -- 62
2017-08-19 03:00:00 23.6 -- -- -- -- 0 -- -- 58
2017-08-19 02:00:00 25.5 -- -- -- -- 0 -- -- 56
2017-08-19 01:00:00 27.4 -- -- -- -- 0 -- -- 49
2017-08-19 00:00:00 29.6 -- -- -- -- 0 -- -- 43
2017-08-18 23:00:00 31.7 -- -- -- -- 0 -- -- 37
2017-08-18 22:00:00 34 -- -- -- -- 0 -- -- 29
2017-08-18 21:00:00 36.7 -- -- -- -- 0 -- -- 19
2017-08-18 20:00:00 38.4 -- -- -- -- 0 -- -- 19
2017-08-18 19:00:00 39.5 -- -- -- -- 0 -- -- 19
2017-08-18 18:00:00 40.1 -- -- -- -- 0 -- -- 20
2017-08-18 17:00:00 39.5 -- -- -- -- 0 -- -- 20
2017-08-18 16:00:00 38.9 -- -- -- -- 0 -- -- 22
2017-08-18 15:00:00 37.3 -- -- -- -- 0 -- -- 27
2017-08-18 14:00:00 34.7 -- -- -- -- 0 -- -- 32
2017-08-18 13:00:00 32.3 -- -- -- -- 0 -- -- 36
2017-08-18 12:00:00 28.2 -- -- -- -- 0 -- -- 43
2017-08-18 11:00:00 24.8 -- -- -- -- 0 -- -- 54
2017-08-18 10:00:00 21.3 -- -- -- -- 0 -- -- 64
2017-08-18 09:00:00 19.4 -- -- -- -- 0 -- -- 70
2017-08-18 08:00:00 19.5 -- -- -- -- 0 -- -- 69
2017-08-18 07:00:00 20.2 -- -- -- -- 0 -- -- 66
2017-08-18 06:00:00 20.9 -- -- -- -- 0 -- -- 62
2017-08-18 05:00:00 21.8 -- -- -- -- 0 -- -- 59
2017-08-18 04:00:00 23 -- -- -- -- 0 -- -- 55
2017-08-18 03:00:00 24.3 -- -- -- -- 0 -- -- 51
2017-08-18 02:00:00 25.8 -- -- -- -- 0 -- -- 48
2017-08-18 01:00:00 27.3 -- -- -- -- 0 -- -- 45
2017-08-18 00:00:00 28.8 -- -- -- -- 0 -- -- 42
2017-08-17 23:00:00 28.4 -- -- -- -- 0 -- -- 47
2017-08-17 22:00:00 30.2 -- -- -- -- 0 -- -- 42
2017-08-17 21:00:00 32.9 -- -- -- -- 0 -- -- 38
2017-08-17 20:00:00 35.2 -- -- -- -- 0 -- -- 33
2017-08-17 19:00:00 35.8 -- -- -- -- 0 -- -- 34
2017-08-17 18:00:00 37.4 -- -- -- -- 0 -- -- 31
2017-08-17 17:00:00 39.4 -- -- -- -- 0 -- -- 17
2017-08-17 16:00:00 38.1 -- -- -- -- 0 -- -- 20
2017-08-17 15:00:00 37.5 -- -- -- -- 0 -- -- 25
2017-08-17 14:00:00 35.6 -- -- -- -- 0 -- -- 28
2017-08-17 13:00:00 32.1 -- -- -- -- 0 -- -- 36
2017-08-17 12:00:00 27.9 -- -- -- -- 0 -- -- 46
2017-08-17 11:00:00 24.2 -- -- -- -- 0 -- -- 55
2017-08-17 10:00:00 21.1 -- -- -- -- 0 -- -- 66
2017-08-17 09:00:00 19.3 -- -- -- -- 0 -- -- 71
2017-08-17 08:00:00 19.2 -- -- -- -- 0 -- -- 68
2017-08-17 07:00:00 19.8 -- -- -- -- 0 -- -- 64
2017-08-17 06:00:00 20.3 -- -- -- -- 0 -- -- 62
2017-08-17 05:00:00 21 -- -- -- -- 0 -- -- 59
2017-08-17 04:00:00 22.1 -- -- -- -- 0 -- -- 54
2017-08-17 03:00:00 23.5 -- -- -- -- 0 -- -- 51
2017-08-17 02:00:00 25.4 -- -- -- -- 0 -- -- 46
2017-08-17 01:00:00 26.8 -- -- -- -- 0 -- -- 43
2017-08-17 00:00:00 28 -- -- -- -- 0 -- -- 39
2017-08-16 23:00:00 29.5 -- -- -- -- 0 -- -- 35
2017-08-16 22:00:00 31.7 -- -- -- -- 0 -- -- 32
2017-08-16 21:00:00 34.2 -- -- -- -- 0 -- -- 23
2017-08-16 20:00:00 35.9 -- -- -- -- 0 -- -- 20
2017-08-16 19:00:00 37 -- -- -- -- 0 -- -- 19
2017-08-16 18:00:00 37.2 -- -- -- -- 0 -- -- 16
2017-08-16 17:00:00 37.1 -- -- -- -- 0 -- -- 15
2017-08-16 16:00:00 -- -- -- -- -- -- -- -- --
2017-08-16 15:00:00 -- -- -- -- -- -- -- -- --
2017-08-16 14:00:00 -- -- -- -- -- -- -- -- --
2017-08-16 13:00:00 -- -- -- -- -- -- -- -- --
2017-08-16 12:00:00 -- -- -- -- -- -- -- -- --
2017-08-16 11:00:00 -- -- -- -- -- -- -- -- --
2017-08-16 10:00:00 -- -- -- -- -- -- -- -- --
2017-08-16 09:00:00 -- -- -- -- -- -- -- -- --
2017-08-16 08:00:00 -- -- -- -- -- -- -- -- --
2017-08-16 07:00:00 -- -- -- -- -- -- -- -- --
2017-08-16 06:00:00 -- -- -- -- -- -- -- -- --
2017-08-16 05:00:00 -- -- -- -- -- -- -- -- --
2017-08-16 04:00:00 -- -- -- -- -- -- -- -- --
2017-08-16 03:00:00 -- -- -- -- -- -- -- -- --
2017-08-16 02:00:00 -- -- -- -- -- -- -- -- --
2017-08-16 01:00:00 -- -- -- -- -- -- -- -- --
2017-08-16 00:00:00 -- -- -- -- -- -- -- -- --
2017-08-15 23:00:00 -- -- -- -- -- -- -- -- --
2017-08-15 22:00:00 -- -- -- -- -- -- -- -- --
2017-08-15 21:00:00 -- -- -- -- -- -- -- -- --
2017-08-15 20:00:00 -- -- -- -- -- -- -- -- --
2017-08-15 19:00:00 -- -- -- -- -- -- -- -- --
2017-08-15 18:00:00 -- -- -- -- -- -- -- -- --
2017-08-15 17:00:00 -- -- -- -- -- -- -- -- --
2017-08-15 16:00:00 -- -- -- -- -- -- -- -- --
2017-08-15 15:00:00 -- -- -- -- -- -- -- -- --
2017-08-15 14:00:00 -- -- -- -- -- -- -- -- --
2017-08-15 13:00:00 -- -- -- -- -- -- -- -- --
2017-08-15 12:00:00 -- -- -- -- -- -- -- -- --
2017-08-15 11:00:00 -- -- -- -- -- -- -- -- --
2017-08-15 10:00:00 -- -- -- -- -- -- -- -- --
2017-08-15 09:00:00 -- -- -- -- -- -- -- -- --
2017-08-15 08:00:00 -- -- -- -- -- -- -- -- --
2017-08-15 07:00:00 18.7 -- -- -- -- 0 -- -- 78
2017-08-15 06:00:00 19.5 -- -- -- -- 0 -- -- 73
2017-08-15 05:00:00 20.3 -- -- -- -- 0 -- -- 70
2017-08-15 04:00:00 21.1 -- -- -- -- 0 -- -- 65
2017-08-15 03:00:00 22.1 -- -- -- -- 0 -- -- 60
2017-08-15 02:00:00 23.1 -- -- -- -- 0 -- -- 52
2017-08-15 01:00:00 24.5 -- -- -- -- 0 -- -- 44
2017-08-15 00:00:00 25.6 -- -- -- -- 0 -- -- 40
2017-08-14 23:00:00 27.1 -- -- -- -- 0 -- -- 36
2017-08-14 22:00:00 29.1 -- -- -- -- 0 -- -- 34
2017-08-14 21:00:00 31.7 -- -- -- -- 0 -- -- 31
2017-08-14 20:00:00 35.3 -- -- -- -- 0 -- -- 24
2017-08-14 19:00:00 36.8 -- -- -- -- 0 -- -- 22
2017-08-14 18:00:00 38.3 -- -- -- -- 0 -- -- 21
2017-08-14 17:00:00 38.2 -- -- -- -- 0 -- -- 22
2017-08-14 16:00:00 38.2 -- -- -- -- 0 -- -- 22
2017-08-14 15:00:00 36.4 -- -- -- -- 0 -- -- 23
2017-08-14 14:00:00 34.8 -- -- -- -- 0 -- -- 24
2017-08-14 13:00:00 32.6 -- -- -- -- 0 -- -- 30
2017-08-14 12:00:00 29.6 -- -- -- -- 0 -- -- 36
2017-08-14 11:00:00 26.1 -- -- -- -- 0 -- -- 45
2017-08-14 10:00:00 21.9 -- -- -- -- 0 -- -- 58
2017-08-14 09:00:00 18.9 -- -- -- -- 0 -- -- 69
2017-08-14 08:00:00 18.5 -- -- -- -- 0 -- -- 71
2017-08-14 07:00:00 18.9 -- -- -- -- 0 -- -- 69
2017-08-14 06:00:00 19.5 -- -- -- -- 0 -- -- 66
2017-08-14 05:00:00 20 -- -- -- -- 0 -- -- 63
2017-08-14 04:00:00 20.9 -- -- -- -- 0 -- -- 61
2017-08-14 03:00:00 21.8 -- -- -- -- 0 -- -- 58
2017-08-14 02:00:00 23.1 -- -- -- -- 0 -- -- 54
2017-08-14 01:00:00 24.6 -- -- -- -- 0 -- -- 45
2017-08-14 00:00:00 26.2 -- -- -- -- 0 -- -- 42
2017-08-13 23:00:00 27.9 -- -- -- -- 0 -- -- 36
2017-08-13 22:00:00 29.7 -- -- -- -- 0 -- -- 33
2017-08-13 21:00:00 32.2 -- -- -- -- 0 -- -- 29
2017-08-13 20:00:00 35.2 -- -- -- -- 0 -- -- 24
2017-08-13 19:00:00 35.9 -- -- -- -- 0 -- -- 26
2017-08-13 18:00:00 37.6 -- -- -- -- 0 -- -- 22
2017-08-13 17:00:00 39 -- -- -- -- 0 -- -- 21
2017-08-13 16:00:00 39.9 -- -- -- -- 0 -- -- 20
2017-08-13 15:00:00 38.8 -- -- -- -- 0 -- -- 21
2017-08-13 14:00:00 36.8 -- -- -- -- 0 -- -- 23
2017-08-13 13:00:00 34.5 -- -- -- -- 0 -- -- 26
2017-08-13 12:00:00 31.4 -- -- -- -- 0 -- -- 30
2017-08-13 11:00:00 27.4 -- -- -- -- 0 -- -- 39
2017-08-13 10:00:00 21.6 -- -- -- -- 0 -- -- 59
2017-08-13 09:00:00 17.8 -- -- -- -- 0 -- -- 70
2017-08-13 08:00:00 17.6 -- -- -- -- 0 -- -- 73
2017-08-13 07:00:00 18 -- -- -- -- 0 -- -- 67
2017-08-13 06:00:00 18.6 -- -- -- -- 0 -- -- 64
2017-08-13 05:00:00 19.5 -- -- -- -- 0 -- -- 63
2017-08-13 04:00:00 -- -- -- -- -- -- -- -- --
2017-08-13 03:00:00 -- -- -- -- -- -- -- -- --
2017-08-13 02:00:00 -- -- -- -- -- -- -- -- --
2017-08-13 01:00:00 -- -- -- -- -- -- -- -- --
2017-08-13 00:00:00 -- -- -- -- -- -- -- -- --
2017-08-12 23:00:00 -- -- -- -- -- -- -- -- --
2017-08-12 22:00:00 -- -- -- -- -- -- -- -- --
2017-08-12 21:00:00 -- -- -- -- -- -- -- -- --
2017-08-12 20:00:00 -- -- -- -- -- -- -- -- --
2017-08-12 19:00:00 -- -- -- -- -- -- -- -- --
2017-08-12 18:00:00 -- -- -- -- -- -- -- -- --
2017-08-12 17:00:00 -- -- -- -- -- -- -- -- --
2017-08-12 16:00:00 -- -- -- -- -- -- -- -- --
2017-08-12 15:00:00 -- -- -- -- -- -- -- -- --
2017-08-12 14:00:00 -- -- -- -- -- -- -- -- --
2017-08-12 13:00:00 -- -- -- -- -- -- -- -- --
2017-08-12 12:00:00 -- -- -- -- -- -- -- -- --
2017-08-12 11:00:00 -- -- -- -- -- -- -- -- --
2017-08-12 10:00:00 -- -- -- -- -- -- -- -- --
2017-08-12 09:00:00 -- -- -- -- -- -- -- -- --
2017-08-12 08:00:00 -- -- -- -- -- -- -- -- --
2017-08-12 07:00:00 -- -- -- -- -- -- -- -- --
2017-08-12 06:00:00 -- -- -- -- -- -- -- -- --
2017-08-12 05:00:00 -- -- -- -- -- -- -- -- --
2017-08-12 04:00:00 -- -- -- -- -- -- -- -- --
2017-08-12 03:00:00 -- -- -- -- -- -- -- -- --
2017-08-12 02:00:00 -- -- -- -- -- -- -- -- --
2017-08-12 01:00:00 -- -- -- -- -- -- -- -- --
2017-08-12 00:00:00 -- -- -- -- -- -- -- -- --
2017-08-11 23:00:00 -- -- -- -- -- -- -- -- --
2017-08-11 22:00:00 -- -- -- -- -- -- -- -- --
2017-08-11 21:00:00 -- -- -- -- -- -- -- -- --
2017-08-11 20:00:00 -- -- -- -- -- -- -- -- --
2017-08-11 19:00:00 -- -- -- -- -- -- -- -- --
2017-08-11 18:00:00 -- -- -- -- -- -- -- -- --
2017-08-11 17:00:00 -- -- -- -- -- -- -- -- --
2017-08-11 16:00:00 -- -- -- -- -- -- -- -- --
2017-08-11 15:00:00 -- -- -- -- -- -- -- -- --
2017-08-11 14:00:00 -- -- -- -- -- -- -- -- --
2017-08-11 13:00:00 -- -- -- -- -- -- -- -- --
2017-08-11 12:00:00 -- -- -- -- -- -- -- -- --
2017-08-11 11:00:00 -- -- -- -- -- -- -- -- --
2017-08-11 10:00:00 -- -- -- -- -- -- -- -- --
2017-08-11 09:00:00 -- -- -- -- -- -- -- -- --
2017-08-11 08:00:00 -- -- -- -- -- -- -- -- --
2017-08-11 07:00:00 -- -- -- -- -- -- -- -- --
2017-08-11 06:00:00 -- -- -- -- -- -- -- -- --
2017-08-11 05:00:00 -- -- -- -- -- -- -- -- --
2017-08-11 04:00:00 -- -- -- -- -- -- -- -- --
2017-08-11 03:00:00 -- -- -- -- -- -- -- -- --
2017-08-11 02:00:00 -- -- -- -- -- -- -- -- --
2017-08-11 01:00:00 -- -- -- -- -- -- -- -- --
2017-08-11 00:00:00 -- -- -- -- -- -- -- -- --
2017-08-10 23:00:00 -- -- -- -- -- -- -- -- --
2017-08-10 22:00:00 -- -- -- -- -- -- -- -- --
2017-08-10 21:00:00 -- -- -- -- -- -- -- -- --
2017-08-10 20:00:00 -- -- -- -- -- -- -- -- --
2017-08-10 19:00:00 -- -- -- -- -- -- -- -- --
2017-08-10 18:00:00 -- -- -- -- -- -- -- -- --
2017-08-10 17:00:00 -- -- -- -- -- -- -- -- --
2017-08-10 16:00:00 -- -- -- -- -- -- -- -- --
2017-08-10 15:00:00 -- -- -- -- -- -- -- -- --
2017-08-10 14:00:00 -- -- -- -- -- -- -- -- --
2017-08-10 13:00:00 -- -- -- -- -- -- -- -- --
2017-08-10 12:00:00 -- -- -- -- -- -- -- -- --
2017-08-10 11:00:00 -- -- -- -- -- -- -- -- --
2017-08-10 10:00:00 -- -- -- -- -- -- -- -- --
2017-08-10 09:00:00 -- -- -- -- -- -- -- -- --
2017-08-10 08:00:00 -- -- -- -- -- -- -- -- --
2017-08-10 07:00:00 -- -- -- -- -- -- -- -- --
2017-08-10 06:00:00 -- -- -- -- -- -- -- -- --
2017-08-10 05:00:00 -- -- -- -- -- -- -- -- --
2017-08-10 04:00:00 -- -- -- -- -- -- -- -- --
2017-08-10 03:00:00 -- -- -- -- -- -- -- -- --
2017-08-10 02:00:00 -- -- -- -- -- -- -- -- --
2017-08-10 01:00:00 -- -- -- -- -- -- -- -- --
2017-08-10 00:00:00 -- -- -- -- -- -- -- -- --
2017-08-09 23:00:00 -- -- -- -- -- -- -- -- --
2017-08-09 22:00:00 -- -- -- -- -- -- -- -- --
2017-08-09 21:00:00 -- -- -- -- -- -- -- -- --
2017-08-09 20:00:00 -- -- -- -- -- -- -- -- --
2017-08-09 19:00:00 -- -- -- -- -- -- -- -- --
2017-08-09 18:00:00 -- -- -- -- -- -- -- -- --
2017-08-09 17:00:00 -- -- -- -- -- -- -- -- --
2017-08-09 16:00:00 -- -- -- -- -- -- -- -- --
2017-08-09 15:00:00 -- -- -- -- -- -- -- -- --
2017-08-09 14:00:00 -- -- -- -- -- -- -- -- --
2017-08-09 13:00:00 -- -- -- -- -- -- -- -- --
2017-08-09 12:00:00 -- -- -- -- -- -- -- -- --
2017-08-09 11:00:00 -- -- -- -- -- -- -- -- --
2017-08-09 10:00:00 -- -- -- -- -- -- -- -- --
2017-08-09 09:00:00 -- -- -- -- -- -- -- -- --
2017-08-09 08:00:00 -- -- -- -- -- -- -- -- --
2017-08-09 07:00:00 -- -- -- -- -- -- -- -- --
2017-08-09 06:00:00 -- -- -- -- -- -- -- -- --
2017-08-09 05:00:00 -- -- -- -- -- -- -- -- --
2017-08-09 04:00:00 -- -- -- -- -- -- -- -- --
2017-08-09 03:00:00 18.3 -- -- -- -- 0 -- -- 55
2017-08-09 02:00:00 19.4 -- -- -- -- 0 -- -- 51
2017-08-09 01:00:00 20.7 -- -- -- -- 0 -- -- 45
2017-08-09 00:00:00 22.5 -- -- -- -- 0 -- -- 40
2017-08-08 23:00:00 24.7 -- -- -- -- 0 -- -- 38
2017-08-08 22:00:00 27 -- -- -- -- 0 -- -- 32
2017-08-08 21:00:00 30.4 -- -- -- -- 0 -- -- 16
2017-08-08 20:00:00 32.5 -- -- -- -- 0 -- -- 15
2017-08-08 19:00:00 33 -- -- -- -- 0 -- -- 15
2017-08-08 18:00:00 33.3 -- -- -- -- 0 -- -- 17
2017-08-08 17:00:00 33.2 -- -- -- -- 0 -- -- 15
2017-08-08 16:00:00 32 -- -- -- -- 0 -- -- 20
2017-08-08 15:00:00 30.5 -- -- -- -- 0 -- -- 25
2017-08-08 14:00:00 29 -- -- -- -- 0 -- -- 31
2017-08-08 13:00:00 27 -- -- -- -- 0 -- -- 37
2017-08-08 12:00:00 24.3 -- -- -- -- 0 -- -- 46
2017-08-08 11:00:00 22.2 -- -- -- -- 0 -- -- 54
2017-08-08 10:00:00 18.9 -- -- -- -- 0 -- -- 66
2017-08-08 09:00:00 17 -- -- -- -- 0 -- -- 73
2017-08-08 08:00:00 17.1 -- -- -- -- 0 -- -- 71
2017-08-08 07:00:00 17.5 -- -- -- -- 0 -- -- 69
2017-08-08 06:00:00 18.2 -- -- -- -- 0 -- -- 68
2017-08-08 05:00:00 18.9 -- -- -- -- 0 -- -- 66
2017-08-08 04:00:00 19.6 -- -- -- -- 0 -- -- 62
2017-08-08 03:00:00 21 -- -- -- -- 0 -- -- 57
2017-08-08 02:00:00 22.4 -- -- -- -- 0 -- -- 53
2017-08-08 01:00:00 24.1 -- -- -- -- 0 -- -- 48
2017-08-08 00:00:00 25.9 -- -- -- -- 0 -- -- 41
2017-08-07 23:00:00 27.9 -- -- -- -- 0 -- -- 29
2017-08-07 22:00:00 30.5 -- -- -- -- 0 -- -- 28
2017-08-07 21:00:00 33.4 -- -- -- -- 0 -- -- 21
2017-08-07 20:00:00 36 -- -- -- -- 0 -- -- 18
2017-08-07 19:00:00 37.4 -- -- -- -- 0 -- -- 16
2017-08-07 18:00:00 39.4 -- -- -- -- 0 -- -- 12
2017-08-07 17:00:00 39 -- -- -- -- 0 -- -- 13
2017-08-07 16:00:00 38.2 -- -- -- -- 0 -- -- 15
2017-08-07 15:00:00 37 -- -- -- -- 0 -- -- 16
2017-08-07 14:00:00 34.4 -- -- -- -- 0 -- -- 20
2017-08-07 13:00:00 31.4 -- -- -- -- 0 -- -- 25
2017-08-07 12:00:00 28.8 -- -- -- -- 0 -- -- 37
2017-08-07 11:00:00 25.6 -- -- -- -- 0 -- -- 47
2017-08-07 10:00:00 21.6 -- -- -- -- 0 -- -- 59
2017-08-07 09:00:00 20.6 -- -- -- -- 0 -- -- 63
2017-08-07 08:00:00 20.1 -- -- -- -- 0 -- -- 64
2017-08-07 07:00:00 20.3 -- -- -- -- 0 -- -- 62
2017-08-07 06:00:00 21.4 -- -- -- -- 0 -- -- 59
2017-08-07 05:00:00 22.2 -- -- -- -- 0 -- -- 58
2017-08-07 04:00:00 23.5 -- -- -- -- 0 -- -- 53
2017-08-07 03:00:00 24.8 -- -- -- -- 0 -- -- 50
2017-08-07 02:00:00 26.1 -- -- -- -- 0 -- -- 47
2017-08-07 01:00:00 27.6 -- -- -- -- 0 -- -- 43
2017-08-07 00:00:00 29.3 -- -- -- -- 0 -- -- 38
2017-08-06 23:00:00 30.9 -- -- -- -- 0 -- -- 31
2017-08-06 22:00:00 33 -- -- -- -- 0 -- -- 22
2017-08-06 21:00:00 35.9 -- -- -- -- 0 -- -- 16
2017-08-06 20:00:00 37.5 -- -- -- -- 0 -- -- 15
2017-08-06 19:00:00 39 -- -- -- -- 0 -- -- 14
2017-08-06 18:00:00 39.7 -- -- -- -- 0 -- -- 13
2017-08-06 17:00:00 39.5 -- -- -- -- 0 -- -- 14
2017-08-06 16:00:00 38.3 -- -- -- -- 0 -- -- 15
2017-08-06 15:00:00 36.4 -- -- -- -- 0 -- -- 18
2017-08-06 14:00:00 34.7 -- -- -- -- 0 -- -- 24
2017-08-06 13:00:00 30.6 -- -- -- -- 0 -- -- 35
2017-08-06 12:00:00 27.6 -- -- -- -- 0 -- -- 46
2017-08-06 11:00:00 24 -- -- -- -- 0 -- -- 57
2017-08-06 10:00:00 20.3 -- -- -- -- 0 -- -- 71
2017-08-06 09:00:00 17.7 -- -- -- -- 0 -- -- 81
2017-08-06 08:00:00 17.3 -- -- -- -- 0 -- -- 81
2017-08-06 07:00:00 17.9 -- -- -- -- 0 -- -- 77
2017-08-06 06:00:00 18.7 -- -- -- -- 0 -- -- 74
2017-08-06 05:00:00 19.7 -- -- -- -- 0 -- -- 68
2017-08-06 04:00:00 -- -- -- -- -- -- -- -- --
2017-08-06 03:00:00 -- -- -- -- -- -- -- -- --
2017-08-06 02:00:00 -- -- -- -- -- -- -- -- --
2017-08-06 01:00:00 -- -- -- -- -- -- -- -- --
2017-08-06 00:00:00 -- -- -- -- -- -- -- -- --
2017-08-05 23:00:00 -- -- -- -- -- -- -- -- --
2017-08-05 22:00:00 -- -- -- -- -- -- -- -- --
2017-08-05 21:00:00 -- -- -- -- -- -- -- -- --
2017-08-05 20:00:00 -- -- -- -- -- -- -- -- --
2017-08-05 19:00:00 39.6 -- -- -- -- 0 -- -- 23
2017-08-05 18:00:00 39.8 -- -- -- -- 0 -- -- 22
2017-08-05 17:00:00 41.1 -- -- -- -- 0 -- -- 19
2017-08-05 16:00:00 40 -- -- -- -- 0 -- -- 22
2017-08-05 15:00:00 37.6 -- -- -- -- 0 -- -- 30
2017-08-05 14:00:00 35.3 -- -- -- -- 0 -- -- 35
2017-08-05 13:00:00 32.6 -- -- -- -- 0 -- -- 43
2017-08-05 12:00:00 29.8 -- -- -- -- 0 -- -- 52
2017-08-05 11:00:00 26.7 -- -- -- -- 0 -- -- 63
2017-08-05 10:00:00 23.8 -- -- -- -- 0 -- -- 73
2017-08-05 09:00:00 21.4 -- -- -- -- 0 -- -- 84
2017-08-05 08:00:00 20.8 -- -- -- -- 0 -- -- 84
2017-08-05 07:00:00 21.5 -- -- -- -- 0 -- -- 79
2017-08-05 06:00:00 22.3 -- -- -- -- 0 -- -- 74
2017-08-05 05:00:00 23.4 -- -- -- -- 0 -- -- 69
2017-08-05 04:00:00 24.7 -- -- -- -- 0 -- -- 63
2017-08-05 03:00:00 26.2 -- -- -- -- 0 -- -- 58
2017-08-05 02:00:00 27.8 -- -- -- -- 0 -- -- 51
2017-08-05 01:00:00 29.6 -- -- -- -- 0 -- -- 42
2017-08-05 00:00:00 31.9 -- -- -- -- 0 -- -- 34
2017-08-04 23:00:00 33.7 -- -- -- -- 0 -- -- 32
2017-08-04 22:00:00 35.6 -- -- -- -- 0 -- -- 32
2017-08-04 21:00:00 38.2 -- -- -- -- 0 -- -- 29
2017-08-04 20:00:00 41.5 -- -- -- -- 0 -- -- 21
2017-08-04 19:00:00 42 -- -- -- -- 0 -- -- 20
2017-08-04 18:00:00 41.9 -- -- -- -- 0 -- -- 20
2017-08-04 17:00:00 41.7 -- -- -- -- 0 -- -- 21
2017-08-04 16:00:00 40.5 -- -- -- -- 0 -- -- 21
2017-08-04 15:00:00 39.2 -- -- -- -- 0 -- -- 25
2017-08-04 14:00:00 37.9 -- -- -- -- 0 -- -- 28
2017-08-04 13:00:00 36 -- -- -- -- 0 -- -- 32
2017-08-04 12:00:00 32.3 -- -- -- -- 0 -- -- 38
2017-08-04 11:00:00 29 -- -- -- -- 0 -- -- 44
2017-08-04 10:00:00 25.2 -- -- -- -- 0 -- -- 52
2017-08-04 09:00:00 22.1 -- -- -- -- 0 -- -- 60
2017-08-04 08:00:00 21.6 -- -- -- -- 0 -- -- 59
2017-08-04 07:00:00 22.2 -- -- -- -- 0 -- -- 56
2017-08-04 06:00:00 22.9 -- -- -- -- 0 -- -- 54
2017-08-04 05:00:00 23.9 -- -- -- -- 0 -- -- 53
2017-08-04 04:00:00 25.2 -- -- -- -- 0 -- -- 52
2017-08-04 03:00:00 26.6 -- -- -- -- 0 -- -- 51
2017-08-04 02:00:00 28.2 -- -- -- -- 0 -- -- 47
2017-08-04 01:00:00 29.6 -- -- -- -- 0 -- -- 45
2017-08-04 00:00:00 31.2 -- -- -- -- 0 -- -- 43
2017-08-03 23:00:00 32.9 -- -- -- -- 0 -- -- 39
2017-08-03 22:00:00 35 -- -- -- -- 0 -- -- 31
2017-08-03 21:00:00 37 -- -- -- -- 0 -- -- 28
2017-08-03 20:00:00 38.5 -- -- -- -- 0 -- -- 20
2017-08-03 19:00:00 39.1 -- -- -- -- 0 -- -- 17
2017-08-03 18:00:00 38.7 -- -- -- -- 0 -- -- 17
2017-08-03 17:00:00 38.6 -- -- -- -- 0 -- -- 18
2017-08-03 16:00:00 37.9 -- -- -- -- 0 -- -- 18
2017-08-03 15:00:00 36.2 -- -- -- -- 0 -- -- 22
2017-08-03 14:00:00 34.2 -- -- -- -- 0 -- -- 30
2017-08-03 13:00:00 31.2 -- -- -- -- 0 -- -- 35
2017-08-03 12:00:00 27.9 -- -- -- -- 0 -- -- 46
2017-08-03 11:00:00 24.6 -- -- -- -- 0 -- -- 58
2017-08-03 10:00:00 21.4 -- -- -- -- 0 -- -- 70
2017-08-03 09:00:00 18.3 -- -- -- -- 0 -- -- 82
2017-08-03 08:00:00 17.8 -- -- -- -- 0 -- -- 83
2017-08-03 07:00:00 18.1 -- -- -- -- 0 -- -- 80
2017-08-03 06:00:00 18.7 -- -- -- -- 0 -- -- 76
2017-08-03 05:00:00 19.5 -- -- -- -- 0 -- -- 70
2017-08-03 04:00:00 20.5 -- -- -- -- 0 -- -- 62
2017-08-03 03:00:00 21.4 -- -- -- -- 0 -- -- 49
2017-08-03 02:00:00 22.7 -- -- -- -- 0 -- -- 39
2017-08-03 01:00:00 24.4 -- -- -- -- 0 -- -- 35
2017-08-03 00:00:00 25.5 -- -- -- -- 0 -- -- 40
2017-08-02 23:00:00 27.4 -- -- -- -- 0 -- -- 36
2017-08-02 22:00:00 29.6 -- -- -- -- 0 -- -- 32
2017-08-02 21:00:00 33.2 -- -- -- -- 0 -- -- 19
2017-08-02 20:00:00 35.7 -- -- -- -- 0 -- -- 18
2017-08-02 19:00:00 37.2 -- -- -- -- 0 -- -- 16
2017-08-02 18:00:00 36.8 -- -- -- -- 0 -- -- 18
2017-08-02 17:00:00 35.3 -- -- -- -- 0 -- -- 19
2017-08-02 16:00:00 36.7 -- -- -- -- 0 -- -- 17
2017-08-02 15:00:00 33.4 -- -- -- -- 0 -- -- 21
2017-08-02 14:00:00 31.5 -- -- -- -- 0 -- -- 26
2017-08-02 13:00:00 28.3 -- -- -- -- 0 -- -- 30
2017-08-02 12:00:00 25.4 -- -- -- -- 0 -- -- 39
2017-08-02 11:00:00 22.9 -- -- -- -- 0 -- -- 48
2017-08-02 10:00:00 19.2 -- -- -- -- 0 -- -- 63
2017-08-02 09:00:00 16.1 -- -- -- -- 0 -- -- 76
2017-08-02 08:00:00 15.5 -- -- -- -- 0 -- -- 76
2017-08-02 07:00:00 16.1 -- -- -- -- 0 -- -- 73
2017-08-02 06:00:00 17 -- -- -- -- 0 -- -- 68
2017-08-02 05:00:00 18 -- -- -- -- 0 -- -- 65
2017-08-02 04:00:00 18.8 -- -- -- -- 0 -- -- 62
2017-08-02 03:00:00 19.5 -- -- -- -- 0 -- -- 61
2017-08-02 02:00:00 20.5 -- -- -- -- 0 -- -- 59
2017-08-02 01:00:00 21.8 -- -- -- -- 0 -- -- 55
2017-08-02 00:00:00 23.2 -- -- -- -- 0 -- -- 50
2017-08-01 23:00:00 24.5 -- -- -- -- 0 -- -- 46
2017-08-01 22:00:00 25.8 -- -- -- -- 0 -- -- 43
2017-08-01 21:00:00 29.4 -- -- -- -- 0 -- -- 29
2017-08-01 20:00:00 31.4 -- -- -- -- 0 -- -- 24
2017-08-01 19:00:00 33.1 -- -- -- -- 0 -- -- 20
2017-08-01 18:00:00 33 -- -- -- -- 0 -- -- 20
2017-08-01 17:00:00 33 -- -- -- -- 0 -- -- 20
2017-08-01 16:00:00 -- -- -- -- -- 0 -- -- --
2017-08-01 15:00:00 31.4 -- -- -- -- 0 -- -- 24
2017-08-01 14:00:00 29.7 -- -- -- -- 0 -- -- 26
2017-08-01 13:00:00 27.1 -- -- -- -- 0 -- -- 34
2017-08-01 12:00:00 24.1 -- -- -- -- 0 -- -- 40
2017-08-01 11:00:00 21.2 -- -- -- -- 0 -- -- 49
2017-08-01 10:00:00 19.5 -- -- -- -- 0 -- -- 54
2017-08-01 09:00:00 18.7 -- -- -- -- 0 -- -- 55
2017-08-01 08:00:00 18.6 -- -- -- -- 0 -- -- 53
2017-08-01 07:00:00 19.1 -- -- -- -- 0 -- -- 51
2017-08-01 06:00:00 19.6 -- -- -- -- 0 -- -- 50
2017-08-01 05:00:00 20 -- -- -- -- 0 -- -- 52
2017-08-01 04:00:00 20.4 -- -- -- -- 0 -- -- 55
2017-08-01 03:00:00 21 -- -- -- -- 0 -- -- 54
2017-08-01 02:00:00 21.6 -- -- -- -- 0 -- -- 53
2017-08-01 01:00:00 22.2 -- -- -- -- 0 -- -- 52
2017-08-01 00:00:00 22.8 -- -- -- -- 0 -- -- 51
2017-07-31 23:00:00 23 -- -- -- -- 0 -- -- 48
2017-07-31 22:00:00 23.8 -- -- -- -- 0 -- -- 39
2017-07-31 21:00:00 25.7 -- -- -- -- 0 -- -- 33
2017-07-31 20:00:00 29.1 -- -- -- -- 0 -- -- 33
2017-07-31 19:00:00 32.2 -- -- -- -- 0 -- -- 23
2017-07-31 18:00:00 35.4 -- -- -- -- 0 -- -- 19
2017-07-31 17:00:00 35.5 -- -- -- -- 0 -- -- 19
2017-07-31 16:00:00 34.6 -- -- -- -- 0 -- -- 21
2017-07-31 15:00:00 31.4 -- -- -- -- 0 -- -- 26
2017-07-31 14:00:00 30 -- -- -- -- 0 -- -- 28
2017-07-31 13:00:00 28.3 -- -- -- -- 0 -- -- 31
2017-07-31 12:00:00 25.8 -- -- -- -- 0 -- -- 39
2017-07-31 11:00:00 23.3 -- -- -- -- 0 -- -- 48
2017-07-31 10:00:00 20.1 -- -- -- -- 0 -- -- 59
2017-07-31 09:00:00 17.8 -- -- -- -- 0 -- -- 71
2017-07-31 08:00:00 17.3 -- -- -- -- 0 -- -- 75
2017-07-31 07:00:00 17.6 -- -- -- -- 0 -- -- 71
2017-07-31 06:00:00 18.3 -- -- -- -- 0 -- -- 68
2017-07-31 05:00:00 19.3 -- -- -- -- 0 -- -- 63
2017-07-31 04:00:00 20.3 -- -- -- -- 0 -- -- 59
2017-07-31 03:00:00 21.4 -- -- -- -- 0 -- -- 55
2017-07-31 02:00:00 23 -- -- -- -- 0 -- -- 50
2017-07-31 01:00:00 24.8 -- -- -- -- 0 -- -- 44
2017-07-31 00:00:00 26.7 -- -- -- -- 0 -- -- 36
2017-07-30 23:00:00 29.1 -- -- -- -- 0 -- -- 30
2017-07-30 22:00:00 31.2 -- -- -- -- 0 -- -- 33
2017-07-30 21:00:00 33.9 -- -- -- -- 0 -- -- 27
2017-07-30 20:00:00 36.8 -- -- -- -- 0 -- -- 21
2017-07-30 19:00:00 38 -- -- -- -- 0 -- -- 20
2017-07-30 18:00:00 38.5 -- -- -- -- 0 -- -- 22
2017-07-30 17:00:00 38.5 -- -- -- -- 0 -- -- 21
2017-07-30 16:00:00 37.1 -- -- -- -- 0 -- -- 22
2017-07-30 15:00:00 36.2 -- -- -- -- 0 -- -- 22
2017-07-30 14:00:00 34 -- -- -- -- 0 -- -- 25
2017-07-30 13:00:00 32.3 -- -- -- -- 0 -- -- 30
2017-07-30 12:00:00 28.8 -- -- -- -- 0 -- -- 41
2017-07-30 11:00:00 25.3 -- -- -- -- 0 -- -- 52
2017-07-30 10:00:00 22.3 -- -- -- -- 0 -- -- 64
2017-07-30 09:00:00 19.8 -- -- -- -- 0 -- -- 80
2017-07-30 08:00:00 19.4 -- -- -- -- 0 -- -- 84
2017-07-30 07:00:00 19.9 -- -- -- -- 0 -- -- 81
2017-07-30 06:00:00 20.8 -- -- -- -- 0 -- -- 77
2017-07-30 05:00:00 21.8 -- -- -- -- 0 -- -- 72
2017-07-30 04:00:00 22.9 -- -- -- -- 0 -- -- 67
2017-07-30 03:00:00 23.8 -- -- -- -- 0 -- -- 63
2017-07-30 02:00:00 24.5 -- -- -- -- 0 -- -- 60
2017-07-30 01:00:00 25.8 -- -- -- -- 0 -- -- 54
2017-07-30 00:00:00 27.2 -- -- -- -- 0 -- -- 51
2017-07-29 23:00:00 29.2 -- -- -- -- 0 -- -- 46
2017-07-29 22:00:00 32.2 -- -- -- -- 0 -- -- 39
2017-07-29 21:00:00 36.3 -- -- -- -- 0 -- -- 30
2017-07-29 20:00:00 38.8 -- -- -- -- 0 -- -- 19
2017-07-29 19:00:00 40.4 -- -- -- -- 0 -- -- 19
2017-07-29 18:00:00 40.5 -- -- -- -- 0 -- -- 20
2017-07-29 17:00:00 40.2 -- -- -- -- 0 -- -- 22
2017-07-29 16:00:00 40.5 -- -- -- -- 0 -- -- 21
2017-07-29 15:00:00 37.9 -- -- -- -- 0 -- -- 25
2017-07-29 14:00:00 37.2 -- -- -- -- 0 -- -- 30
2017-07-29 13:00:00 33.9 -- -- -- -- 0 -- -- 36
2017-07-29 12:00:00 30.2 -- -- -- -- 0 -- -- 46
2017-07-29 11:00:00 27.4 -- -- -- -- 0 -- -- 54
2017-07-29 10:00:00 23.5 -- -- -- -- 0 -- -- 68
2017-07-29 09:00:00 20.4 -- -- -- -- 0 -- -- 79
2017-07-29 08:00:00 19.6 -- -- -- -- 0 -- -- 81
2017-07-29 07:00:00 20.2 -- -- -- -- 0 -- -- 78
2017-07-29 06:00:00 21 -- -- -- -- 0 -- -- 73
2017-07-29 05:00:00 21.9 -- -- -- -- 0 -- -- 70
2017-07-29 04:00:00 23.1 -- -- -- -- 0 -- -- 65
2017-07-29 03:00:00 24.6 -- -- -- -- 0 -- -- 60
2017-07-29 02:00:00 26.1 -- -- -- -- 0 -- -- 54
2017-07-29 01:00:00 27.9 -- -- -- -- 0 -- -- 48
2017-07-29 00:00:00 29.9 -- -- -- -- 0 -- -- 42
2017-07-28 23:00:00 31.4 -- -- -- -- 0 -- -- 40
2017-07-28 22:00:00 33.7 -- -- -- -- 0 -- -- 35
2017-07-28 21:00:00 38.1 -- -- -- -- 0 -- -- 18
2017-07-28 20:00:00 39.9 -- -- -- -- 0 -- -- 15
2017-07-28 19:00:00 40.4 -- -- -- -- 0 -- -- 15
2017-07-28 18:00:00 40.4 -- -- -- -- 0 -- -- 14
2017-07-28 17:00:00 39.1 -- -- -- -- 0 -- -- 18
2017-07-28 16:00:00 37.8 -- -- -- -- 0 -- -- 19
2017-07-28 15:00:00 36.9 -- -- -- -- 0 -- -- 26
2017-07-28 14:00:00 34.6 -- -- -- -- 0 -- -- 33
2017-07-28 13:00:00 31.2 -- -- -- -- 0 -- -- 40
2017-07-28 12:00:00 27.9 -- -- -- -- 0 -- -- 51
2017-07-28 11:00:00 23.9 -- -- -- -- 0 -- -- 65
2017-07-28 10:00:00 21 -- -- -- -- 0 -- -- 77
2017-07-28 09:00:00 18.2 -- -- -- -- 0 -- -- 88
2017-07-28 08:00:00 17.7 -- -- -- -- 0 -- -- 88
2017-07-28 07:00:00 18 -- -- -- -- 0 -- -- 86
2017-07-28 06:00:00 18.6 -- -- -- -- 0 -- -- 82
2017-07-28 05:00:00 19.3 -- -- -- -- 0 -- -- 77
2017-07-28 04:00:00 20.5 -- -- -- -- 0 -- -- 70
2017-07-28 03:00:00 21.8 -- -- -- -- 0 -- -- 63
2017-07-28 02:00:00 23.5 -- -- -- -- 0 -- -- 57
2017-07-28 01:00:00 25 -- -- -- -- 0 -- -- 54
2017-07-28 00:00:00 27 -- -- -- -- 0 -- -- 47
2017-07-27 23:00:00 29.3 -- -- -- -- 0 -- -- 39
2017-07-27 22:00:00 32.1 -- -- -- -- 0 -- -- 28
2017-07-27 21:00:00 35.9 -- -- -- -- 0 -- -- 19
2017-07-27 20:00:00 38 -- -- -- -- 0 -- -- 17
2017-07-27 19:00:00 39 -- -- -- -- 0 -- -- 16
2017-07-27 18:00:00 39.6 -- -- -- -- 0 -- -- 15
2017-07-27 17:00:00 39.4 -- -- -- -- 0 -- -- 15
2017-07-27 16:00:00 39.6 -- -- -- -- 0 -- -- 15
2017-07-27 15:00:00 38.6 -- -- -- -- 0 -- -- 15
2017-07-27 14:00:00 36.5 -- -- -- -- 0 -- -- 18
2017-07-27 13:00:00 33.4 -- -- -- -- 0 -- -- 24
2017-07-27 12:00:00 29.6 -- -- -- -- 0 -- -- 30
2017-07-27 11:00:00 26.1 -- -- -- -- 0 -- -- 36
2017-07-27 10:00:00 22.8 -- -- -- -- 0 -- -- 42
2017-07-27 09:00:00 20.7 -- -- -- -- 0 -- -- 46
2017-07-27 08:00:00 20.3 -- -- -- -- 0 -- -- 47
2017-07-27 07:00:00 20.7 -- -- -- -- 0 -- -- 45
2017-07-27 06:00:00 21.7 -- -- -- -- 0 -- -- 44
2017-07-27 05:00:00 22.9 -- -- -- -- 0 -- -- 42
2017-07-27 04:00:00 24.3 -- -- -- -- 0 -- -- 42
2017-07-27 03:00:00 25.6 -- -- -- -- 0 -- -- 43
2017-07-27 02:00:00 27 -- -- -- -- 0 -- -- 42
2017-07-27 01:00:00 28.2 -- -- -- -- 0 -- -- 42
2017-07-27 00:00:00 28.1 -- -- -- -- 0 -- -- 43
2017-07-26 23:00:00 28.3 -- -- -- -- 0 -- -- 45
2017-07-26 22:00:00 29.8 -- -- -- -- 0 -- -- 37
2017-07-26 21:00:00 31.9 -- -- -- -- 0 -- -- 34
2017-07-26 20:00:00 33.7 -- -- -- -- 0 -- -- 32
2017-07-26 19:00:00 34.4 -- -- -- -- 0 -- -- 33
2017-07-26 18:00:00 35.7 -- -- -- -- 0 -- -- 35
2017-07-26 17:00:00 37.5 -- -- -- -- 0 -- -- 30
2017-07-26 16:00:00 37.5 -- -- -- -- 0 -- -- 31
2017-07-26 15:00:00 37.5 -- -- -- -- 0 -- -- 30
2017-07-26 14:00:00 35.8 -- -- -- -- 0 -- -- 34
2017-07-26 13:00:00 32.9 -- -- -- -- 0 -- -- 38
2017-07-26 12:00:00 30.1 -- -- -- -- 0 -- -- 38
2017-07-26 11:00:00 26.2 -- -- -- -- 0 -- -- 43
2017-07-26 10:00:00 22.9 -- -- -- -- 0 -- -- 52
2017-07-26 09:00:00 19.9 -- -- -- -- 0 -- -- 61
2017-07-26 08:00:00 -- -- -- -- -- -- -- -- --
2017-07-26 07:00:00 -- -- -- -- -- -- -- -- --
2017-07-26 06:00:00 -- -- -- -- -- -- -- -- --
2017-07-26 05:00:00 -- -- -- -- -- -- -- -- --
2017-07-26 04:00:00 -- -- -- -- -- -- -- -- --
2017-07-26 03:00:00 -- -- -- -- -- -- -- -- --
2017-07-26 02:00:00 26.3 -- -- -- -- 0 -- -- 37
2017-07-26 01:00:00 28 -- -- -- -- 0 -- -- 35
2017-07-26 00:00:00 30 -- -- -- -- 0 -- -- 32
2017-07-25 23:00:00 31.8 -- -- -- -- 0 -- -- 30
2017-07-25 22:00:00 33.7 -- -- -- -- 0 -- -- 31
2017-07-25 21:00:00 37.8 -- -- -- -- 0 -- -- 17
2017-07-25 20:00:00 38.9 -- -- -- -- 0 -- -- 17
2017-07-25 19:00:00 38.8 -- -- -- -- 0 -- -- 19
2017-07-25 18:00:00 37.8 -- -- -- -- 0 -- -- 19
2017-07-25 17:00:00 37.6 -- -- -- -- 0 -- -- 20
2017-07-25 16:00:00 38.6 -- -- -- -- 0 -- -- 21
2017-07-25 15:00:00 37.2 -- -- -- -- 0 -- -- 24
2017-07-25 14:00:00 33.7 -- -- -- -- 0 -- -- 32
2017-07-25 13:00:00 29.7 -- -- -- -- 0 -- -- 42
2017-07-25 12:00:00 26 -- -- -- -- 0 -- -- 52
2017-07-25 11:00:00 22.5 -- -- -- -- 0 -- -- 62
2017-07-25 10:00:00 20 -- -- -- -- 0 -- -- 71
2017-07-25 09:00:00 18 -- -- -- -- 0 -- -- 77
2017-07-25 08:00:00 -- -- -- -- -- -- -- -- --
2017-07-25 07:00:00 -- -- -- -- -- -- -- -- --
2017-07-25 06:00:00 -- -- -- -- -- -- -- -- --
2017-07-25 05:00:00 -- -- -- -- -- -- -- -- --
2017-07-25 04:00:00 -- -- -- -- -- -- -- -- --
2017-07-25 03:00:00 -- -- -- -- -- -- -- -- --
2017-07-25 02:00:00 -- -- -- -- -- -- -- -- --
2017-07-25 01:00:00 -- -- -- -- -- -- -- -- --
2017-07-25 00:00:00 -- -- -- -- -- -- -- -- --
2017-07-24 23:00:00 -- -- -- -- -- -- -- -- --
2017-07-24 22:00:00 -- -- -- -- -- -- -- -- --
2017-07-24 21:00:00 -- -- -- -- -- -- -- -- --
2017-07-24 20:00:00 -- -- -- -- -- -- -- -- --
2017-07-24 19:00:00 -- -- -- -- -- -- -- -- --
2017-07-24 18:00:00 -- -- -- -- -- -- -- -- --
2017-07-24 17:00:00 -- -- -- -- -- -- -- -- --
2017-07-24 16:00:00 -- -- -- -- -- -- -- -- --
2017-07-24 15:00:00 -- -- -- -- -- -- -- -- --
2017-07-24 14:00:00 -- -- -- -- -- -- -- -- --
2017-07-24 13:00:00 -- -- -- -- -- -- -- -- --
2017-07-24 12:00:00 -- -- -- -- -- -- -- -- --
2017-07-24 11:00:00 -- -- -- -- -- -- -- -- --
2017-07-24 10:00:00 -- -- -- -- -- -- -- -- --
2017-07-24 09:00:00 -- -- -- -- -- -- -- -- --
2017-07-24 08:00:00 -- -- -- -- -- -- -- -- --
2017-07-24 07:00:00 -- -- -- -- -- -- -- -- --
2017-07-24 06:00:00 -- -- -- -- -- -- -- -- --
2017-07-24 05:00:00 -- -- -- -- -- -- -- -- --
2017-07-24 04:00:00 -- -- -- -- -- -- -- -- --
2017-07-24 03:00:00 -- -- -- -- -- -- -- -- --
2017-07-24 02:00:00 -- -- -- -- -- -- -- -- --
2017-07-24 01:00:00 -- -- -- -- -- -- -- -- --
2017-07-24 00:00:00 -- -- -- -- -- -- -- -- --
2017-07-23 23:00:00 29.7 -- -- -- -- 0 -- -- 35
2017-07-23 22:00:00 31.8 -- -- -- -- 0 -- -- 32
2017-07-23 21:00:00 35 -- -- -- -- 0 -- -- 19
2017-07-23 20:00:00 36.1 -- -- -- -- 0 -- -- 18
2017-07-23 19:00:00 36.5 -- -- -- -- 0 -- -- 19
2017-07-23 18:00:00 36.9 -- -- -- -- 0 -- -- 19
2017-07-23 17:00:00 35.8 -- -- -- -- 0 -- -- 20
2017-07-23 16:00:00 34.6 -- -- -- -- 0 -- -- 22
2017-07-23 15:00:00 34.1 -- -- -- -- 0 -- -- 24
2017-07-23 14:00:00 31.7 -- -- -- -- 0 -- -- 29
2017-07-23 13:00:00 29.2 -- -- -- -- 0 -- -- 36
2017-07-23 12:00:00 26.3 -- -- -- -- 0 -- -- 44
2017-07-23 11:00:00 22.6 -- -- -- -- 0 -- -- 54
2017-07-23 10:00:00 19.2 -- -- -- -- 0 -- -- 66
2017-07-23 09:00:00 16.3 -- -- -- -- 0 -- -- 77
2017-07-23 08:00:00 16 -- -- -- -- 0 -- -- 79
2017-07-23 07:00:00 16.6 -- -- -- -- 0 -- -- 78
2017-07-23 06:00:00 17.5 -- -- -- -- 0 -- -- 76
2017-07-23 05:00:00 18.5 -- -- -- -- 0 -- -- 73
2017-07-23 04:00:00 19.6 -- -- -- -- 0 -- -- 69
2017-07-23 03:00:00 20.8 -- -- -- -- 0 -- -- 64
2017-07-23 02:00:00 22.1 -- -- -- -- 0 -- -- 60
2017-07-23 01:00:00 23.3 -- -- -- -- 0 -- -- 55
2017-07-23 00:00:00 24.4 -- -- -- -- 0 -- -- 53